^^
Station Historical Data
Daily Summary for February 3, 2018 Units:  Both    English   Metric
« Previous Day
Next Day »
Daily Weekly Monthly Yearly Custom
  High: Low: Average:
Temperature: TemperatureF °F /  -17.8 °C 72.9 °F /  22.7 °C 77.7 °F /  25.4 °C
Dew Point: DewpointF °F /  -17.8 °C 49.5 °F /  9.7 °C 51.6 °F /  10.9 °C
Humidity: Humidity% 30% 40%
Wind Speed: WindSpeedMPHmph /  0km/h - -14.4mph /  -23.2km/h
Wind Gust: WindSpeedGustMPHmph /  0km/h - -
Wind- -
Pressure: PressureIn in /  0 hPa 29.53 in /  999.9 hPa -
Precipitation: 0.00 in /  0 mm    
Historical Graphs
 
 
Tabular Data for February 3, 2018
Time Temperature Dew Point Pressure Wind Wind Speed Wind Gust Humidity Rainfall Rate (Hourly) solar Conditions
TemperatureF °F /  -17.8 °C DewpointF °F /  -17.8 °C PressureInin /  0hPa Calm     Humidity% HourlyPrecipInin /  0mm SoftwareType W/m2 Conditions
08:32 74.5 °F /  23.6 °C 51.1 °F /  10.6 °C 29.61in /  1002.6hPa NNE 8.1mph /  13km/h 9.0mph /  14.5km/h 44% 0.00in /  0mm meteobridge W/m2
08:38 75.0 °F /  23.9 °C 51.1 °F /  10.6 °C 29.62in /  1002.9hPa East 0.9mph /  1.4km/h 3.0mph /  4.8km/h 43% 0.00in /  0mm meteobridge W/m2
08:45 75.6 °F /  24.2 °C 50.2 °F /  10.1 °C 29.62in /  1002.9hPa NNE 4.9mph /  7.9km/h 10.0mph /  16.1km/h 41% 0.00in /  0mm meteobridge W/m2
08:51 75.4 °F /  24.1 °C 49.5 °F /  9.7 °C 29.63in /  1003.3hPa NNE 2.0mph /  3.2km/h 7.0mph /  11.3km/h 40% 0.00in /  0mm meteobridge W/m2
08:57 75.4 °F /  24.1 °C 50.0 °F /  10 °C 29.63in /  1003.3hPa North 4.9mph /  7.9km/h 7.0mph /  11.3km/h 41% 0.00in /  0mm meteobridge W/m2
09:03 75.6 °F /  24.2 °C 50.2 °F /  10.1 °C 29.63in /  1003.3hPa NNE 4.0mph /  6.4km/h 4.0mph /  6.4km/h 41% 0.00in /  0mm meteobridge W/m2
09:09 76.1 °F /  24.5 °C 50.0 °F /  10 °C 29.63in /  1003.3hPa North 6.9mph /  11.1km/h 9.0mph /  14.5km/h 40% 0.00in /  0mm meteobridge W/m2
09:15 76.3 °F /  24.6 °C 49.5 °F /  9.7 °C 29.63in /  1003.3hPa Calm   5.0mph /  8km/h 39% 0.00in /  0mm meteobridge W/m2
09:21 76.5 °F /  24.7 °C 50.4 °F /  10.2 °C 29.63in /  1003.3hPa NNW 2.9mph /  4.7km/h 4.0mph /  6.4km/h 40% 0.00in /  0mm meteobridge W/m2
09:27 76.3 °F /  24.6 °C 50.2 °F /  10.1 °C 29.64in /  1003.6hPa NE 0.9mph /  1.4km/h 6.0mph /  9.7km/h 40% 0.00in /  0mm meteobridge W/m2
09:33 77.0 °F /  25 °C 50.2 °F /  10.1 °C 29.63in /  1003.3hPa North 10.1mph /  16.3km/h 13.0mph /  20.9km/h 39% 0.00in /  0mm meteobridge W/m2
09:39 77.0 °F /  25 °C 50.2 °F /  10.1 °C 29.64in /  1003.6hPa North 6.9mph /  11.1km/h 7.0mph /  11.3km/h 39% 0.00in /  0mm meteobridge W/m2
09:45 77.2 °F /  25.1 °C 50.4 °F /  10.2 °C 29.64in /  1003.6hPa North 4.9mph /  7.9km/h 11.0mph /  17.7km/h 39% 0.00in /  0mm meteobridge W/m2
09:52 77.7 °F /  25.4 °C 50.0 °F /  10 °C 29.64in /  1003.6hPa East 4.0mph /  6.4km/h 5.0mph /  8km/h 38% 0.00in /  0mm meteobridge W/m2
09:58 78.6 °F /  25.9 °C 50.9 °F /  10.5 °C 29.63in /  1003.3hPa ENE 4.0mph /  6.4km/h 7.0mph /  11.3km/h 38% 0.00in /  0mm meteobridge W/m2
10:04 79.0 °F /  26.1 °C 51.3 °F /  10.7 °C 29.63in /  1003.3hPa NE 12.1mph /  19.5km/h 12.1mph /  19.5km/h 38% 0.00in /  0mm meteobridge W/m2
10:10 78.6 °F /  25.9 °C 50.9 °F /  10.5 °C 29.64in /  1003.6hPa NNW 6.0mph /  9.7km/h 15.0mph /  24.1km/h 38% 0.00in /  0mm meteobridge W/m2
10:16 78.3 °F /  25.7 °C 50.5 °F /  10.3 °C 29.63in /  1003.3hPa North 17.0mph /  27.4km/h 17.0mph /  27.4km/h 38% 0.00in /  0mm meteobridge W/m2
10:22 76.5 °F /  24.7 °C 50.4 °F /  10.2 °C 29.64in /  1003.6hPa NNW 10.1mph /  16.3km/h 12.0mph /  19.3km/h 40% 0.00in /  0mm meteobridge W/m2
10:28 77.2 °F /  25.1 °C 51.1 °F /  10.6 °C 29.64in /  1003.6hPa NE 8.9mph /  14.3km/h 15.0mph /  24.1km/h 40% 0.00in /  0mm meteobridge W/m2
10:35 78.6 °F /  25.9 °C 50.9 °F /  10.5 °C 29.64in /  1003.6hPa NNE 12.1mph /  19.5km/h 16.0mph /  25.7km/h 38% 0.00in /  0mm meteobridge W/m2
10:41 77.7 °F /  25.4 °C 50.7 °F /  10.4 °C 29.64in /  1003.6hPa NNW 6.0mph /  9.7km/h 14.0mph /  22.5km/h 39% 0.00in /  0mm meteobridge W/m2
10:47 77.7 °F /  25.4 °C 50.7 °F /  10.4 °C 29.64in /  1003.6hPa North 8.9mph /  14.3km/h 11.0mph /  17.7km/h 39% 0.00in /  0mm meteobridge W/m2
10:53 77.4 °F /  25.2 °C 50.5 °F /  10.3 °C 29.64in /  1003.6hPa NNE 6.0mph /  9.7km/h 7.0mph /  11.3km/h 39% 0.00in /  0mm meteobridge W/m2
10:59 78.3 °F /  25.7 °C 51.3 °F /  10.7 °C 29.64in /  1003.6hPa NNE 11.0mph /  17.7km/h 18.0mph /  29km/h 39% 0.00in /  0mm meteobridge W/m2
11:05 79.0 °F /  26.1 °C 52.0 °F /  11.1 °C 29.64in /  1003.6hPa NE 2.0mph /  3.2km/h 10.0mph /  16.1km/h 39% 0.00in /  0mm meteobridge W/m2
11:11 80.8 °F /  27.1 °C 51.3 °F /  10.7 °C 29.64in /  1003.6hPa North 6.9mph /  11.1km/h 14.0mph /  22.5km/h 36% 0.00in /  0mm meteobridge W/m2
11:18 79.9 °F /  26.6 °C 51.3 °F /  10.7 °C 29.64in /  1003.6hPa NNE 10.1mph /  16.3km/h 12.0mph /  19.3km/h 37% 0.00in /  0mm meteobridge W/m2
11:24 80.4 °F /  26.9 °C 51.8 °F /  11 °C 29.63in /  1003.3hPa NNE 10.1mph /  16.3km/h 10.1mph /  16.3km/h 37% 0.00in /  0mm meteobridge W/m2
11:38 81.1 °F /  27.3 °C 51.6 °F /  10.9 °C 29.62in /  1002.9hPa NNE 12.1mph /  19.5km/h 12.1mph /  19.5km/h 36% 0.00in /  0mm meteobridge W/m2
11:46 81.9 °F /  27.7 °C 51.4 °F /  10.8 °C 29.63in /  1003.3hPa North 8.9mph /  14.3km/h 9.0mph /  14.5km/h 35% 0.00in /  0mm meteobridge W/m2
11:53 81.1 °F /  27.3 °C 51.6 °F /  10.9 °C 29.62in /  1002.9hPa NNE 14.1mph /  22.7km/h 18.0mph /  29km/h 36% 0.00in /  0mm meteobridge W/m2
11:59 81.0 °F /  27.2 °C 51.4 °F /  10.8 °C 29.62in /  1002.9hPa NE 8.9mph /  14.3km/h 14.0mph /  22.5km/h 36% 0.00in /  0mm meteobridge W/m2
12:05 81.7 °F /  27.6 °C 52.2 °F /  11.2 °C 29.62in /  1002.9hPa NNE 4.9mph /  7.9km/h 11.0mph /  17.7km/h 36% 0.00in /  0mm meteobridge W/m2
12:11 81.1 °F /  27.3 °C 51.6 °F /  10.9 °C 29.62in /  1002.9hPa NNW 8.9mph /  14.3km/h 13.0mph /  20.9km/h 36% 0.00in /  0mm meteobridge W/m2
12:17 80.1 °F /  26.7 °C 51.4 °F /  10.8 °C 29.62in /  1002.9hPa ENE 4.0mph /  6.4km/h 7.0mph /  11.3km/h 37% 0.00in /  0mm meteobridge W/m2
12:23 81.3 °F /  27.4 °C 51.1 °F /  10.6 °C 29.61in /  1002.6hPa NNE 10.1mph /  16.3km/h 17.0mph /  27.4km/h 35% 0.00in /  0mm meteobridge W/m2
12:29 80.4 °F /  26.9 °C 51.1 °F /  10.6 °C 29.61in /  1002.6hPa NE 6.9mph /  11.1km/h 12.0mph /  19.3km/h 36% 0.00in /  0mm meteobridge W/m2
12:35 79.9 °F /  26.6 °C 51.3 °F /  10.7 °C 29.61in /  1002.6hPa SE 2.9mph /  4.7km/h 4.0mph /  6.4km/h 37% 0.00in /  0mm meteobridge W/m2
12:41 80.8 °F /  27.1 °C 51.3 °F /  10.7 °C 29.60in /  1002.3hPa North 12.1mph /  19.5km/h 16.0mph /  25.7km/h 36% 0.00in /  0mm meteobridge W/m2
12:48 82.2 °F /  27.9 °C 51.8 °F /  11 °C 29.60in /  1002.3hPa NNE 6.9mph /  11.1km/h 15.0mph /  24.1km/h 35% 0.00in /  0mm meteobridge W/m2
12:54 83.1 °F /  28.4 °C 51.8 °F /  11 °C 29.59in /  1001.9hPa ESE 2.9mph /  4.7km/h 6.0mph /  9.7km/h 34% 0.00in /  0mm meteobridge W/m2
13:00 84.7 °F /  29.3 °C 51.6 °F /  10.9 °C 29.59in /  1001.9hPa NW 4.9mph /  7.9km/h 16.0mph /  25.7km/h 32% 0.00in /  0mm meteobridge W/m2
13:06 84.9 °F /  29.4 °C 51.8 °F /  11 °C 29.59in /  1001.9hPa NNE 4.0mph /  6.4km/h 9.0mph /  14.5km/h 32% 0.00in /  0mm meteobridge W/m2
13:12 84.7 °F /  29.3 °C 51.6 °F /  10.9 °C 29.59in /  1001.9hPa NE 11.0mph /  17.7km/h 14.0mph /  22.5km/h 32% 0.00in /  0mm meteobridge W/m2
13:18 84.0 °F /  28.9 °C 50.9 °F /  10.5 °C 29.59in /  1001.9hPa East 2.9mph /  4.7km/h 6.0mph /  9.7km/h 32% 0.00in /  0mm meteobridge W/m2
13:24 84.7 °F /  29.3 °C 51.6 °F /  10.9 °C 29.58in /  1001.6hPa South 6.9mph /  11.1km/h 10.0mph /  16.1km/h 32% 0.00in /  0mm meteobridge W/m2
13:30 84.9 °F /  29.4 °C 51.8 °F /  11 °C 29.58in /  1001.6hPa North 8.9mph /  14.3km/h 15.0mph /  24.1km/h 32% 0.00in /  0mm meteobridge W/m2
13:39 83.7 °F /  28.7 °C 51.4 °F /  10.8 °C 29.58in /  1001.6hPa North 8.9mph /  14.3km/h 13.0mph /  20.9km/h 33% 0.00in /  0mm meteobridge W/m2
13:45 83.5 °F /  28.6 °C 51.4 °F /  10.8 °C 29.57in /  1001.2hPa Calm   3.0mph /  4.8km/h 33% 0.00in /  0mm meteobridge W/m2
13:51 84.2 °F /  29 °C 51.1 °F /  10.6 °C 29.57in /  1001.2hPa North 4.0mph /  6.4km/h 12.0mph /  19.3km/h 32% 0.00in /  0mm meteobridge W/m2
13:57 83.7 °F /  28.7 °C 50.7 °F /  10.4 °C 29.57in /  1001.2hPa ENE 0.9mph /  1.4km/h 10.0mph /  16.1km/h 32% 0.00in /  0mm meteobridge W/m2
14:03 83.5 °F /  28.6 °C 51.4 °F /  10.8 °C 29.57in /  1001.2hPa ENE 6.0mph /  9.7km/h 11.0mph /  17.7km/h 33% 0.00in /  0mm meteobridge W/m2
14:09 82.9 °F /  28.3 °C 50.9 °F /  10.5 °C 29.57in /  1001.2hPa NNE 6.0mph /  9.7km/h 13.0mph /  20.9km/h 33% 0.00in /  0mm meteobridge W/m2
14:15 82.9 °F /  28.3 °C 51.6 °F /  10.9 °C 29.56in /  1000.9hPa NNE 4.9mph /  7.9km/h 7.0mph /  11.3km/h 34% 0.00in /  0mm meteobridge W/m2
14:22 82.8 °F /  28.2 °C 50.7 °F /  10.4 °C 29.55in /  1000.6hPa NE 4.0mph /  6.4km/h 16.0mph /  25.7km/h 33% 0.00in /  0mm meteobridge W/m2
14:28 82.9 °F /  28.3 °C 50.9 °F /  10.5 °C 29.55in /  1000.6hPa NNE 6.9mph /  11.1km/h 11.0mph /  17.7km/h 33% 0.00in /  0mm meteobridge W/m2
14:34 83.7 °F /  28.7 °C 50.7 °F /  10.4 °C 29.54in /  1000.2hPa NNE 4.9mph /  7.9km/h 10.0mph /  16.1km/h 32% 0.00in /  0mm meteobridge W/m2
14:40 85.6 °F /  29.8 °C 51.6 °F /  10.9 °C 29.54in /  1000.2hPa NNE 4.9mph /  7.9km/h 7.0mph /  11.3km/h 31% 0.00in /  0mm meteobridge W/m2
14:46 86.5 °F /  30.3 °C 51.4 °F /  10.8 °C 29.54in /  1000.2hPa East 8.9mph /  14.3km/h 10.0mph /  16.1km/h 30% 0.00in /  0mm meteobridge W/m2
14:52 85.5 °F /  29.7 °C 52.2 °F /  11.2 °C 29.54in /  1000.2hPa NE 4.0mph /  6.4km/h 7.0mph /  11.3km/h 32% 0.00in /  0mm meteobridge W/m2
14:58 84.4 °F /  29.1 °C 51.3 °F /  10.7 °C 29.54in /  1000.2hPa North 13.0mph /  20.9km/h 14.0mph /  22.5km/h 32% 0.00in /  0mm meteobridge W/m2
15:04 82.2 °F /  27.9 °C 52.5 °F /  11.4 °C 29.54in /  1000.2hPa ENE 6.0mph /  9.7km/h 16.0mph /  25.7km/h 36% 0.00in /  0mm meteobridge W/m2
15:10 79.7 °F /  26.5 °C 54.0 °F /  12.2 °C 29.54in /  1000.2hPa ENE 4.9mph /  7.9km/h 16.0mph /  25.7km/h 41% 0.00in /  0mm meteobridge W/m2
15:16 78.3 °F /  25.7 °C 53.2 °F /  11.8 °C 29.54in /  1000.2hPa ENE 2.0mph /  3.2km/h 6.0mph /  9.7km/h 42% 0.00in /  0mm meteobridge W/m2
15:22 77.9 °F /  25.5 °C 52.9 °F /  11.6 °C 29.54in /  1000.2hPa ENE 6.0mph /  9.7km/h 6.0mph /  9.7km/h 42% 0.00in /  0mm meteobridge W/m2
15:28 78.1 °F /  25.6 °C 52.5 °F /  11.4 °C 29.54in /  1000.2hPa NE 2.0mph /  3.2km/h 10.0mph /  16.1km/h 41% 0.00in /  0mm meteobridge W/m2
15:34 78.3 °F /  25.7 °C 53.2 °F /  11.8 °C 29.53in /  999.9hPa NE 0.9mph /  1.4km/h 4.0mph /  6.4km/h 42% 0.00in /  0mm meteobridge W/m2
15:40 78.3 °F /  25.7 °C 54.0 °F /  12.2 °C 29.54in /  1000.2hPa ENE 2.0mph /  3.2km/h 6.0mph /  9.7km/h 43% 0.00in /  0mm meteobridge W/m2
15:47 76.5 °F /  24.7 °C 54.7 °F /  12.6 °C 29.55in /  1000.6hPa NNE 10.1mph /  16.3km/h 13.0mph /  20.9km/h 47% 0.00in /  0mm meteobridge W/m2
15:53 75.0 °F /  23.9 °C 55.6 °F /  13.1 °C 29.54in /  1000.2hPa NE 6.9mph /  11.1km/h 11.0mph /  17.7km/h 51% 0.00in /  0mm meteobridge W/m2
16:11 74.1 °F /  23.4 °C 55.4 °F /  13 °C 29.55in /  1000.6hPa NE 2.0mph /  3.2km/h 4.0mph /  6.4km/h 52% 0.00in /  0mm meteobridge W/m2
16:17 74.1 °F /  23.4 °C 54.3 °F /  12.4 °C 29.54in /  1000.2hPa SSW 2.9mph /  4.7km/h 6.0mph /  9.7km/h 50% 0.00in /  0mm meteobridge W/m2
16:36 73.6 °F /  23.1 °C 56.5 °F /  13.6 °C 29.54in /  1000.2hPa Calm   1.0mph /  1.6km/h 55% 0.00in /  0mm meteobridge W/m2
16:42 73.8 °F /  23.2 °C 55.0 °F /  12.8 °C 29.54in /  1000.2hPa SSW 2.0mph /  3.2km/h 6.0mph /  9.7km/h 52% 0.00in /  0mm meteobridge W/m2
16:48 74.5 °F /  23.6 °C 54.7 °F /  12.6 °C 29.53in /  999.9hPa Calm   4.0mph /  6.4km/h 50% 0.00in /  0mm meteobridge W/m2
16:54 75.2 °F /  24 °C 54.7 °F /  12.6 °C 29.53in /  999.9hPa Calm   1.0mph /  1.6km/h 49% 0.00in /  0mm meteobridge W/m2
17:01 75.7 °F /  24.3 °C 54.1 °F /  12.3 °C 29.53in /  999.9hPa Calm     47% 0.00in /  0mm meteobridge W/m2
17:07 75.9 °F /  24.4 °C 54.9 °F /  12.7 °C 29.53in /  999.9hPa SSE 0.9mph /  1.4km/h 2.0mph /  3.2km/h 48% 0.00in /  0mm meteobridge W/m2
17:13 76.1 °F /  24.5 °C 55.6 °F /  13.1 °C 29.54in /  1000.2hPa SSE 2.9mph /  4.7km/h 5.0mph /  8km/h 49% 0.00in /  0mm meteobridge W/m2
17:19 76.1 °F /  24.5 °C 55.6 °F /  13.1 °C 29.54in /  1000.2hPa SSE 2.9mph /  4.7km/h 6.0mph /  9.7km/h 49% 0.00in /  0mm meteobridge W/m2
17:25 75.9 °F /  24.4 °C 54.9 °F /  12.7 °C 29.54in /  1000.2hPa SSE 2.0mph /  3.2km/h 6.0mph /  9.7km/h 48% 0.00in /  0mm meteobridge W/m2
17:32 75.9 °F /  24.4 °C 54.9 °F /  12.7 °C 29.55in /  1000.6hPa SE 6.0mph /  9.7km/h 6.0mph /  9.7km/h 48% 0.00in /  0mm meteobridge W/m2
17:38 75.7 °F /  24.3 °C 54.1 °F /  12.3 °C 29.55in /  1000.6hPa SE 2.0mph /  3.2km/h 7.0mph /  11.3km/h 47% 0.00in /  0mm meteobridge W/m2
17:44 75.4 °F /  24.1 °C 55.4 °F /  13 °C 29.54in /  1000.2hPa SSE 4.9mph /  7.9km/h 9.0mph /  14.5km/h 50% 0.00in /  0mm meteobridge W/m2
17:50 75.0 °F /  23.9 °C 55.0 °F /  12.8 °C 29.54in /  1000.2hPa South 4.9mph /  7.9km/h 9.0mph /  14.5km/h 50% 0.00in /  0mm meteobridge W/m2
17:56 74.8 °F /  23.8 °C 55.0 °F /  12.8 °C 29.54in /  1000.2hPa South 4.0mph /  6.4km/h 7.0mph /  11.3km/h 50% 0.00in /  0mm meteobridge W/m2
18:02 74.5 °F /  23.6 °C 54.7 °F /  12.6 °C 29.54in /  1000.2hPa South 2.0mph /  3.2km/h 3.0mph /  4.8km/h 50% 0.00in /  0mm meteobridge W/m2
18:08 74.7 °F /  23.7 °C 55.4 °F /  13 °C 29.55in /  1000.6hPa South 6.0mph /  9.7km/h 12.0mph /  19.3km/h 51% 0.00in /  0mm meteobridge W/m2
18:14 74.1 °F /  23.4 °C 53.8 °F /  12.1 °C 29.55in /  1000.6hPa SSE 2.9mph /  4.7km/h 5.0mph /  8km/h 49% 0.00in /  0mm meteobridge W/m2
18:37 73.8 °F /  23.2 °C 52.9 °F /  11.6 °C 29.56in /  1000.9hPa South 6.0mph /  9.7km/h 8.0mph /  12.9km/h 48% 0.00in /  0mm meteobridge W/m2
18:43 73.8 °F /  23.2 °C 52.9 °F /  11.6 °C 29.57in /  1001.2hPa SSE 4.0mph /  6.4km/h 12.0mph /  19.3km/h 48% 0.00in /  0mm meteobridge W/m2
18:49 73.6 °F /  23.1 °C 52.7 °F /  11.5 °C 29.57in /  1001.2hPa South 6.0mph /  9.7km/h 10.0mph /  16.1km/h 48% 0.00in /  0mm meteobridge W/m2
18:55 73.0 °F /  22.8 °C 52.7 °F /  11.5 °C 29.57in /  1001.2hPa South 6.9mph /  11.1km/h 12.0mph /  19.3km/h 49% 0.00in /  0mm meteobridge W/m2
19:01 72.9 °F /  22.7 °C 52.0 °F /  11.1 °C 29.57in /  1001.2hPa SSE 0.9mph /  1.4km/h 7.0mph /  11.3km/h 48% 0.00in /  0mm meteobridge W/m2
19:07 73.0 °F /  22.8 °C 52.2 °F /  11.2 °C 29.57in /  1001.2hPa South 4.0mph /  6.4km/h 9.0mph /  14.5km/h 48% 0.00in /  0mm meteobridge W/m2
19:13 73.2 °F /  22.9 °C 51.3 °F /  10.7 °C 29.57in /  1001.2hPa SSE 8.9mph /  14.3km/h 12.0mph /  19.3km/h 46% 0.00in /  0mm meteobridge W/m2
19:35 73.0 °F /  22.8 °C 51.6 °F /  10.9 °C 29.58in /  1001.6hPa SE 2.9mph /  4.7km/h -999.0mph /  -1607.7km/h 47% 0.00in /  0mm meteobridge W/m2
19:42 73.0 °F /  22.8 °C 51.6 °F /  10.9 °C 29.59in /  1001.9hPa North -999.9mph /  -1609.1km/h -999.0mph /  -1607.7km/h 47% 0.00in /  0mm meteobridge W/m2
19:46 73.0 °F /  22.8 °C 51.6 °F /  10.9 °C 29.59in /  1001.9hPa North -999.9mph /  -1609.1km/h -999.0mph /  -1607.7km/h 47% 0.00in /  0mm meteobridge W/m2
Regenstein, Windhoek, Namibia
Compliments of Weather Underground - 2.5 mb